Terminal Aerodrome Forecast
Issued by NWS

Home | Current Version | Previous Version | Text Only | Print | Product List | Glossary On
Versions: 1 2 3 4 5 6 7 8 9 10 11 12 13 14 15 16
000
FTUS42 KFFC 031353 AAA
TAFFTY
TAF AMD
KFTY 031353Z 0314/0412 07003KT P6SM FEW250
     FM031600 03005KT P6SM FEW250
     FM031800 35005KT P6SM SCT050
     FM040200 00000KT P6SM FEW080=

USA.gov is the U.S. government's official web portal to all federal, state and local government web resources and services.